sensor_id;sensor_type;location;lat;lon;timestamp;P1;durP1;ratioP1;P2;durP2;ratioP2
14414;SDS011;7307;50.852;4.314;2022-09-09T00:00:31;1.77;;;0.60;;
14414;SDS011;7307;50.852;4.314;2022-09-09T00:05:51;0.75;;;0.73;;
14414;SDS011;7307;50.852;4.314;2022-09-09T00:08:41;1.02;;;0.82;;
14414;SDS011;7307;50.852;4.314;2022-09-09T00:11:36;1.10;;;0.70;;
14414;SDS011;7307;50.852;4.314;2022-09-09T00:14:53;1.30;;;0.70;;
14414;SDS011;7307;50.852;4.314;2022-09-09T00:16:57;0.88;;;0.80;;
14414;SDS011;7307;50.852;4.314;2022-09-09T00:22:33;0.95;;;0.70;;
14414;SDS011;7307;50.852;4.314;2022-09-09T00:24:54;3.33;;;0.77;;
14414;SDS011;7307;50.852;4.314;2022-09-09T00:30:18;2.15;;;0.95;;
14414;SDS011;7307;50.852;4.314;2022-09-09T00:32:48;1.15;;;0.60;;
14414;SDS011;7307;50.852;4.314;2022-09-09T00:35:23;0.73;;;0.55;;
14414;SDS011;7307;50.852;4.314;2022-09-09T00:37:53;0.50;;;0.50;;
14414;SDS011;7307;50.852;4.314;2022-09-09T00:40:23;0.77;;;0.70;;
14414;SDS011;7307;50.852;4.314;2022-09-09T00:42:54;0.60;;;0.60;;
14414;SDS011;7307;50.852;4.314;2022-09-09T00:51:25;0.95;;;0.80;;
14414;SDS011;7307;50.852;4.314;2022-09-09T00:56:43;0.60;;;0.60;;
14414;SDS011;7307;50.852;4.314;2022-09-09T01:01:50;1.15;;;0.77;;
14414;SDS011;7307;50.852;4.314;2022-09-09T01:04:20;6.00;;;0.80;;
14414;SDS011;7307;50.852;4.314;2022-09-09T01:06:57;1.92;;;0.90;;
14414;SDS011;7307;50.852;4.314;2022-09-09T01:12:40;5.47;;;0.90;;
14414;SDS011;7307;50.852;4.314;2022-09-09T01:15:19;2.65;;;1.00;;
14414;SDS011;7307;50.852;4.314;2022-09-09T01:20:27;1.48;;;0.70;;
14414;SDS011;7307;50.852;4.314;2022-09-09T01:23:12;2.35;;;0.90;;
14414;SDS011;7307;50.852;4.314;2022-09-09T01:26:12;4.18;;;1.13;;
14414;SDS011;7307;50.852;4.314;2022-09-09T01:28:40;2.67;;;0.90;;
14414;SDS011;7307;50.852;4.314;2022-09-09T01:31:23;4.95;;;1.00;;
14414;SDS011;7307;50.852;4.314;2022-09-09T01:34:23;4.18;;;0.90;;
14414;SDS011;7307;50.852;4.314;2022-09-09T01:36:59;4.07;;;1.00;;
14414;SDS011;7307;50.852;4.314;2022-09-09T01:39:29;3.58;;;0.80;;
14414;SDS011;7307;50.852;4.314;2022-09-09T01:41:56;1.95;;;0.93;;
14414;SDS011;7307;50.852;4.314;2022-09-09T01:44:22;2.67;;;0.80;;
14414;SDS011;7307;50.852;4.314;2022-09-09T01:46:49;2.90;;;0.90;;
14414;SDS011;7307;50.852;4.314;2022-09-09T01:49:15;2.53;;;0.80;;
14414;SDS011;7307;50.852;4.314;2022-09-09T01:51:42;2.90;;;0.85;;
14414;SDS011;7307;50.852;4.314;2022-09-09T01:54:10;2.35;;;0.95;;
14414;SDS011;7307;50.852;4.314;2022-09-09T01:59:24;1.70;;;0.85;;
14414;SDS011;7307;50.852;4.314;2022-09-09T02:02:17;2.53;;;0.80;;
14414;SDS011;7307;50.852;4.314;2022-09-09T02:04:52;2.88;;;0.70;;
14414;SDS011;7307;50.852;4.314;2022-09-09T02:09:52;2.90;;;0.68;;
14414;SDS011;7307;50.852;4.314;2022-09-09T02:12:26;3.55;;;0.95;;
14414;SDS011;7307;50.852;4.314;2022-09-09T02:15:00;4.22;;;0.90;;
14414;SDS011;7307;50.852;4.314;2022-09-09T02:17:31;1.75;;;0.70;;
14414;SDS011;7307;50.852;4.314;2022-09-09T02:20:08;5.30;;;1.10;;
14414;SDS011;7307;50.852;4.314;2022-09-09T02:22:38;2.20;;;1.10;;
14414;SDS011;7307;50.852;4.314;2022-09-09T02:25:08;2.67;;;0.70;;
14414;SDS011;7307;50.852;4.314;2022-09-09T02:27:37;2.10;;;0.70;;
14414;SDS011;7307;50.852;4.314;2022-09-09T02:30:05;1.92;;;0.75;;
14414;SDS011;7307;50.852;4.314;2022-09-09T02:32:32;3.60;;;0.70;;
14414;SDS011;7307;50.852;4.314;2022-09-09T02:35:02;1.58;;;0.70;;
14414;SDS011;7307;50.852;4.314;2022-09-09T02:37:32;2.13;;;0.82;;
14414;SDS011;7307;50.852;4.314;2022-09-09T02:40:03;1.48;;;0.90;;
14414;SDS011;7307;50.852;4.314;2022-09-09T02:42:31;5.13;;;1.02;;
14414;SDS011;7307;50.852;4.314;2022-09-09T02:44:57;2.40;;;1.00;;
14414;SDS011;7307;50.852;4.314;2022-09-09T02:47:29;2.50;;;0.70;;
14414;SDS011;7307;50.852;4.314;2022-09-09T02:50:20;1.92;;;0.57;;
14414;SDS011;7307;50.852;4.314;2022-09-09T02:58:12;2.60;;;0.90;;
14414;SDS011;7307;50.852;4.314;2022-09-09T03:00:42;4.60;;;0.70;;
14414;SDS011;7307;50.852;4.314;2022-09-09T03:03:10;3.33;;;1.02;;
14414;SDS011;7307;50.852;4.314;2022-09-09T03:05:35;6.22;;;0.98;;
14414;SDS011;7307;50.852;4.314;2022-09-09T03:08:02;1.75;;;0.77;;
14414;SDS011;7307;50.852;4.314;2022-09-09T03:10:28;1.83;;;0.88;;
14414;SDS011;7307;50.852;4.314;2022-09-09T03:12:54;1.35;;;0.73;;
14414;SDS011;7307;50.852;4.314;2022-09-09T03:15:20;2.00;;;0.80;;
14414;SDS011;7307;50.852;4.314;2022-09-09T03:17:46;2.03;;;1.00;;
14414;SDS011;7307;50.852;4.314;2022-09-09T03:20:12;1.25;;;0.55;;
14414;SDS011;7307;50.852;4.314;2022-09-09T03:22:37;1.95;;;0.70;;
14414;SDS011;7307;50.852;4.314;2022-09-09T03:25:03;2.95;;;0.80;;
14414;SDS011;7307;50.852;4.314;2022-09-09T03:27:29;1.45;;;0.60;;
14414;SDS011;7307;50.852;4.314;2022-09-09T03:29:54;1.95;;;0.68;;
14414;SDS011;7307;50.852;4.314;2022-09-09T03:32:20;1.48;;;0.75;;
14414;SDS011;7307;50.852;4.314;2022-09-09T03:34:47;4.45;;;0.95;;
14414;SDS011;7307;50.852;4.314;2022-09-09T03:37:14;0.93;;;0.55;;
14414;SDS011;7307;50.852;4.314;2022-09-09T03:39:41;1.38;;;0.73;;
14414;SDS011;7307;50.852;4.314;2022-09-09T03:42:06;1.35;;;0.80;;
14414;SDS011;7307;50.852;4.314;2022-09-09T03:44:32;2.38;;;0.80;;
14414;SDS011;7307;50.852;4.314;2022-09-09T03:46:57;1.73;;;0.65;;
14414;SDS011;7307;50.852;4.314;2022-09-09T03:49:25;1.00;;;0.60;;
14414;SDS011;7307;50.852;4.314;2022-09-09T03:51:53;2.08;;;0.80;;
14414;SDS011;7307;50.852;4.314;2022-09-09T03:54:19;1.77;;;0.80;;
14414;SDS011;7307;50.852;4.314;2022-09-09T03:56:45;2.30;;;1.00;;
14414;SDS011;7307;50.852;4.314;2022-09-09T03:59:10;2.67;;;0.70;;
14414;SDS011;7307;50.852;4.314;2022-09-09T04:01:36;1.63;;;0.73;;
14414;SDS011;7307;50.852;4.314;2022-09-09T04:04:02;1.80;;;0.90;;
14414;SDS011;7307;50.852;4.314;2022-09-09T04:06:27;1.90;;;0.80;;
14414;SDS011;7307;50.852;4.314;2022-09-09T04:08:54;2.35;;;0.73;;
14414;SDS011;7307;50.852;4.314;2022-09-09T04:11:20;1.13;;;0.70;;
14414;SDS011;7307;50.852;4.314;2022-09-09T04:13:46;1.13;;;0.60;;
14414;SDS011;7307;50.852;4.314;2022-09-09T04:16:12;1.65;;;0.80;;
14414;SDS011;7307;50.852;4.314;2022-09-09T04:18:39;1.48;;;0.73;;
14414;SDS011;7307;50.852;4.314;2022-09-09T04:21:04;2.17;;;0.82;;
14414;SDS011;7307;50.852;4.314;2022-09-09T04:23:32;2.33;;;0.68;;
14414;SDS011;7307;50.852;4.314;2022-09-09T04:25:59;1.45;;;0.75;;
14414;SDS011;7307;50.852;4.314;2022-09-09T04:28:30;2.15;;;0.70;;
14414;SDS011;7307;50.852;4.314;2022-09-09T04:31:03;1.83;;;0.98;;
14414;SDS011;7307;50.852;4.314;2022-09-09T04:33:40;1.13;;;0.70;;
14414;SDS011;7307;50.852;4.314;2022-09-09T04:36:06;0.93;;;0.70;;
14414;SDS011;7307;50.852;4.314;2022-09-09T04:38:32;1.92;;;0.70;;
14414;SDS011;7307;50.852;4.314;2022-09-09T04:40:57;2.78;;;0.80;;
14414;SDS011;7307;50.852;4.314;2022-09-09T04:43:23;0.80;;;0.73;;
14414;SDS011;7307;50.852;4.314;2022-09-09T04:45:51;1.00;;;0.52;;
14414;SDS011;7307;50.852;4.314;2022-09-09T04:48:17;1.65;;;0.88;;
14414;SDS011;7307;50.852;4.314;2022-09-09T04:50:43;2.08;;;0.65;;
14414;SDS011;7307;50.852;4.314;2022-09-09T04:53:09;1.73;;;0.65;;
14414;SDS011;7307;50.852;4.314;2022-09-09T04:55:34;2.80;;;0.80;;
14414;SDS011;7307;50.852;4.314;2022-09-09T04:58:07;2.03;;;0.88;;
14414;SDS011;7307;50.852;4.314;2022-09-09T05:00:34;0.90;;;0.55;;
14414;SDS011;7307;50.852;4.314;2022-09-09T05:03:09;2.50;;;0.73;;
14414;SDS011;7307;50.852;4.314;2022-09-09T05:05:35;1.80;;;0.75;;
14414;SDS011;7307;50.852;4.314;2022-09-09T05:08:01;1.10;;;0.60;;
14414;SDS011;7307;50.852;4.314;2022-09-09T05:10:28;2.17;;;0.70;;
14414;SDS011;7307;50.852;4.314;2022-09-09T05:12:53;2.03;;;1.00;;
14414;SDS011;7307;50.852;4.314;2022-09-09T05:15:19;1.35;;;0.77;;
14414;SDS011;7307;50.852;4.314;2022-09-09T05:17:46;1.42;;;0.63;;
14414;SDS011;7307;50.852;4.314;2022-09-09T05:20:11;1.15;;;0.70;;
14414;SDS011;7307;50.852;4.314;2022-09-09T05:22:37;2.85;;;1.00;;
14414;SDS011;7307;50.852;4.314;2022-09-09T05:25:03;1.27;;;0.70;;
14414;SDS011;7307;50.852;4.314;2022-09-09T05:27:29;2.33;;;0.80;;
14414;SDS011;7307;50.852;4.314;2022-09-09T05:29:56;1.58;;;0.77;;
14414;SDS011;7307;50.852;4.314;2022-09-09T05:32:23;3.10;;;1.05;;
14414;SDS011;7307;50.852;4.314;2022-09-09T05:34:49;2.60;;;0.77;;
14414;SDS011;7307;50.852;4.314;2022-09-09T05:37:14;3.47;;;0.93;;
14414;SDS011;7307;50.852;4.314;2022-09-09T05:39:41;1.63;;;0.80;;
14414;SDS011;7307;50.852;4.314;2022-09-09T05:42:07;1.75;;;0.80;;
14414;SDS011;7307;50.852;4.314;2022-09-09T05:44:32;1.92;;;0.90;;
14414;SDS011;7307;50.852;4.314;2022-09-09T05:46:58;4.43;;;0.82;;
14414;SDS011;7307;50.852;4.314;2022-09-09T05:49:24;1.52;;;0.90;;
14414;SDS011;7307;50.852;4.314;2022-09-09T05:51:49;1.88;;;0.77;;
14414;SDS011;7307;50.852;4.314;2022-09-09T05:54:15;1.15;;;0.75;;
14414;SDS011;7307;50.852;4.314;2022-09-09T05:56:41;2.28;;;1.00;;
14414;SDS011;7307;50.852;4.314;2022-09-09T05:59:07;1.50;;;0.60;;
14414;SDS011;7307;50.852;4.314;2022-09-09T06:01:34;2.22;;;0.80;;
14414;SDS011;7307;50.852;4.314;2022-09-09T06:04:01;2.25;;;0.90;;
14414;SDS011;7307;50.852;4.314;2022-09-09T06:06:30;2.67;;;0.90;;
14414;SDS011;7307;50.852;4.314;2022-09-09T06:09:01;1.48;;;0.88;;
14414;SDS011;7307;50.852;4.314;2022-09-09T06:11:28;1.85;;;0.70;;
14414;SDS011;7307;50.852;4.314;2022-09-09T06:13:58;1.75;;;0.70;;
14414;SDS011;7307;50.852;4.314;2022-09-09T06:16:25;1.15;;;0.82;;
14414;SDS011;7307;50.852;4.314;2022-09-09T06:18:53;3.05;;;0.88;;
14414;SDS011;7307;50.852;4.314;2022-09-09T06:21:23;2.22;;;0.77;;
14414;SDS011;7307;50.852;4.314;2022-09-09T06:23:53;2.22;;;0.80;;
14414;SDS011;7307;50.852;4.314;2022-09-09T06:26:20;1.63;;;1.00;;
14414;SDS011;7307;50.852;4.314;2022-09-09T06:28:48;1.98;;;0.93;;
14414;SDS011;7307;50.852;4.314;2022-09-09T06:31:15;3.15;;;0.93;;
14414;SDS011;7307;50.852;4.314;2022-09-09T06:33:42;2.15;;;1.00;;
14414;SDS011;7307;50.852;4.314;2022-09-09T06:36:12;2.03;;;0.70;;
14414;SDS011;7307;50.852;4.314;2022-09-09T06:38:40;3.72;;;0.80;;
14414;SDS011;7307;50.852;4.314;2022-09-09T06:41:10;3.00;;;0.80;;
14414;SDS011;7307;50.852;4.314;2022-09-09T06:43:37;7.72;;;1.17;;
14414;SDS011;7307;50.852;4.314;2022-09-09T06:46:06;4.43;;;1.60;;
14414;SDS011;7307;50.852;4.314;2022-09-09T06:48:34;6.15;;;1.55;;
14414;SDS011;7307;50.852;4.314;2022-09-09T06:51:05;8.32;;;2.30;;
14414;SDS011;7307;50.852;4.314;2022-09-09T06:53:39;5.47;;;1.70;;
14414;SDS011;7307;50.852;4.314;2022-09-09T06:56:19;3.85;;;1.35;;
14414;SDS011;7307;50.852;4.314;2022-09-09T06:58:46;5.93;;;1.73;;
14414;SDS011;7307;50.852;4.314;2022-09-09T07:01:17;4.85;;;1.60;;
14414;SDS011;7307;50.852;4.314;2022-09-09T07:03:45;7.13;;;1.83;;
14414;SDS011;7307;50.852;4.314;2022-09-09T07:06:13;5.53;;;1.80;;
14414;SDS011;7307;50.852;4.314;2022-09-09T07:08:42;6.65;;;1.80;;
14414;SDS011;7307;50.852;4.314;2022-09-09T07:11:08;7.45;;;1.50;;
14414;SDS011;7307;50.852;4.314;2022-09-09T07:13:34;10.20;;;1.95;;
14414;SDS011;7307;50.852;4.314;2022-09-09T07:16:04;5.53;;;1.58;;
14414;SDS011;7307;50.852;4.314;2022-09-09T07:18:35;5.65;;;1.40;;
14414;SDS011;7307;50.852;4.314;2022-09-09T07:21:01;5.60;;;1.70;;
14414;SDS011;7307;50.852;4.314;2022-09-09T07:23:28;7.00;;;1.58;;
14414;SDS011;7307;50.852;4.314;2022-09-09T07:25:55;4.38;;;1.50;;
14414;SDS011;7307;50.852;4.314;2022-09-09T07:28:24;7.55;;;1.80;;
14414;SDS011;7307;50.852;4.314;2022-09-09T07:30:58;6.65;;;1.90;;
14414;SDS011;7307;50.852;4.314;2022-09-09T07:33:28;6.32;;;1.60;;
14414;SDS011;7307;50.852;4.314;2022-09-09T07:38:43;6.35;;;1.30;;
14414;SDS011;7307;50.852;4.314;2022-09-09T07:41:15;5.68;;;1.52;;
14414;SDS011;7307;50.852;4.314;2022-09-09T07:43:43;5.03;;;1.52;;
14414;SDS011;7307;50.852;4.314;2022-09-09T07:46:11;9.85;;;1.92;;
14414;SDS011;7307;50.852;4.314;2022-09-09T07:48:44;6.82;;;1.75;;
14414;SDS011;7307;50.852;4.314;2022-09-09T07:51:12;5.22;;;1.50;;
14414;SDS011;7307;50.852;4.314;2022-09-09T07:53:43;4.85;;;1.92;;
14414;SDS011;7307;50.852;4.314;2022-09-09T07:56:10;7.75;;;1.40;;
14414;SDS011;7307;50.852;4.314;2022-09-09T07:58:38;6.53;;;1.30;;
14414;SDS011;7307;50.852;4.314;2022-09-09T08:01:12;4.13;;;1.25;;
14414;SDS011;7307;50.852;4.314;2022-09-09T08:03:47;5.07;;;1.15;;
14414;SDS011;7307;50.852;4.314;2022-09-09T08:06:17;4.68;;;1.50;;
14414;SDS011;7307;50.852;4.314;2022-09-09T08:08:43;5.25;;;1.50;;
14414;SDS011;7307;50.852;4.314;2022-09-09T08:11:10;6.47;;;1.67;;
14414;SDS011;7307;50.852;4.314;2022-09-09T08:13:37;4.38;;;1.42;;
14414;SDS011;7307;50.852;4.314;2022-09-09T08:16:07;6.05;;;1.20;;
14414;SDS011;7307;50.852;4.314;2022-09-09T08:18:35;6.15;;;1.60;;
14414;SDS011;7307;50.852;4.314;2022-09-09T08:21:08;4.43;;;1.40;;
14414;SDS011;7307;50.852;4.314;2022-09-09T08:23:39;5.55;;;1.27;;
14414;SDS011;7307;50.852;4.314;2022-09-09T08:26:11;5.82;;;1.67;;
14414;SDS011;7307;50.852;4.314;2022-09-09T08:28:38;6.03;;;1.60;;
14414;SDS011;7307;50.852;4.314;2022-09-09T08:31:09;4.10;;;1.27;;
14414;SDS011;7307;50.852;4.314;2022-09-09T08:33:40;4.88;;;1.30;;
14414;SDS011;7307;50.852;4.314;2022-09-09T08:36:08;2.38;;;1.23;;
14414;SDS011;7307;50.852;4.314;2022-09-09T08:38:35;2.55;;;1.40;;
14414;SDS011;7307;50.852;4.314;2022-09-09T08:43:46;4.60;;;1.30;;
14414;SDS011;7307;50.852;4.314;2022-09-09T08:51:37;3.20;;;1.15;;
14414;SDS011;7307;50.852;4.314;2022-09-09T08:54:03;6.60;;;1.45;;
14414;SDS011;7307;50.852;4.314;2022-09-09T08:56:30;4.80;;;1.20;;
14414;SDS011;7307;50.852;4.314;2022-09-09T08:58:57;3.95;;;1.33;;
14414;SDS011;7307;50.852;4.314;2022-09-09T09:04:19;4.60;;;1.58;;
14414;SDS011;7307;50.852;4.314;2022-09-09T09:07:32;6.35;;;1.63;;
14414;SDS011;7307;50.852;4.314;2022-09-09T09:12:41;5.43;;;1.55;;
14414;SDS011;7307;50.852;4.314;2022-09-09T09:15:17;4.38;;;1.55;;
14414;SDS011;7307;50.852;4.314;2022-09-09T09:17:46;5.15;;;1.70;;
14414;SDS011;7307;50.852;4.314;2022-09-09T09:20:14;6.18;;;1.75;;
14414;SDS011;7307;50.852;4.314;2022-09-09T09:22:51;6.38;;;1.50;;
14414;SDS011;7307;50.852;4.314;2022-09-09T09:25:21;8.35;;;1.88;;
14414;SDS011;7307;50.852;4.314;2022-09-09T09:30:46;7.50;;;1.85;;
14414;SDS011;7307;50.852;4.314;2022-09-09T09:33:15;9.27;;;1.98;;
14414;SDS011;7307;50.852;4.314;2022-09-09T09:35:48;4.97;;;1.40;;
14414;SDS011;7307;50.852;4.314;2022-09-09T09:38:16;4.90;;;1.33;;
14414;SDS011;7307;50.852;4.314;2022-09-09T09:40:48;6.10;;;1.98;;
14414;SDS011;7307;50.852;4.314;2022-09-09T09:43:20;10.38;;;2.70;;
14414;SDS011;7307;50.852;4.314;2022-09-09T09:45:49;6.60;;;2.20;;
14414;SDS011;7307;50.852;4.314;2022-09-09T09:48:15;16.90;;;3.38;;
14414;SDS011;7307;50.852;4.314;2022-09-09T09:53:21;7.05;;;2.17;;
14414;SDS011;7307;50.852;4.314;2022-09-09T09:55:54;8.65;;;1.95;;
14414;SDS011;7307;50.852;4.314;2022-09-09T09:58:25;4.45;;;1.45;;
14414;SDS011;7307;50.852;4.314;2022-09-09T10:00:53;8.23;;;1.80;;
14414;SDS011;7307;50.852;4.314;2022-09-09T10:06:02;5.25;;;1.80;;
14414;SDS011;7307;50.852;4.314;2022-09-09T10:08:28;9.27;;;2.28;;
14414;SDS011;7307;50.852;4.314;2022-09-09T10:24:22;4.78;;;1.60;;
14414;SDS011;7307;50.852;4.314;2022-09-09T10:27:15;5.70;;;1.98;;
14414;SDS011;7307;50.852;4.314;2022-09-09T10:33:10;10.00;;;1.80;;
14414;SDS011;7307;50.852;4.314;2022-09-09T10:41:08;5.68;;;1.90;;
14414;SDS011;7307;50.852;4.314;2022-09-09T10:57:05;5.03;;;1.85;;
14414;SDS011;7307;50.852;4.314;2022-09-09T10:59:42;6.53;;;2.20;;
14414;SDS011;7307;50.852;4.314;2022-09-09T11:02:16;4.65;;;1.67;;
14414;SDS011;7307;50.852;4.314;2022-09-09T11:05:04;5.72;;;2.08;;
14414;SDS011;7307;50.852;4.314;2022-09-09T11:07:35;9.60;;;1.67;;
14414;SDS011;7307;50.852;4.314;2022-09-09T11:10:15;5.13;;;1.90;;
14414;SDS011;7307;50.852;4.314;2022-09-09T11:13:20;5.47;;;1.75;;
14414;SDS011;7307;50.852;4.314;2022-09-09T11:15:52;5.18;;;1.55;;
14414;SDS011;7307;50.852;4.314;2022-09-09T11:18:25;3.35;;;1.50;;
14414;SDS011;7307;50.852;4.314;2022-09-09T11:20:55;5.18;;;1.75;;
14414;SDS011;7307;50.852;4.314;2022-09-09T11:23:32;6.05;;;1.70;;
14414;SDS011;7307;50.852;4.314;2022-09-09T11:26:07;3.72;;;1.40;;
14414;SDS011;7307;50.852;4.314;2022-09-09T11:31:28;4.53;;;1.50;;
14414;SDS011;7307;50.852;4.314;2022-09-09T11:44:39;6.25;;;1.45;;
14414;SDS011;7307;50.852;4.314;2022-09-09T11:47:21;3.80;;;1.70;;
14414;SDS011;7307;50.852;4.314;2022-09-09T11:49:54;3.28;;;1.42;;
14414;SDS011;7307;50.852;4.314;2022-09-09T11:53:03;2.70;;;1.20;;
14414;SDS011;7307;50.852;4.314;2022-09-09T11:55:38;3.00;;;1.70;;
14414;SDS011;7307;50.852;4.314;2022-09-09T12:00:40;3.08;;;1.38;;
14414;SDS011;7307;50.852;4.314;2022-09-09T12:08:53;2.25;;;1.02;;
14414;SDS011;7307;50.852;4.314;2022-09-09T12:11:35;2.55;;;1.40;;
14414;SDS011;7307;50.852;4.314;2022-09-09T12:14:02;3.92;;;1.20;;
14414;SDS011;7307;50.852;4.314;2022-09-09T12:16:29;4.88;;;1.13;;
14414;SDS011;7307;50.852;4.314;2022-09-09T12:19:05;4.50;;;1.80;;
14414;SDS011;7307;50.852;4.314;2022-09-09T12:21:43;4.35;;;1.70;;
14414;SDS011;7307;50.852;4.314;2022-09-09T12:24:20;3.20;;;1.48;;
14414;SDS011;7307;50.852;4.314;2022-09-09T12:30:08;2.70;;;1.23;;
14414;SDS011;7307;50.852;4.314;2022-09-09T12:32:35;4.72;;;1.45;;
14414;SDS011;7307;50.852;4.314;2022-09-09T12:35:03;4.93;;;1.80;;
14414;SDS011;7307;50.852;4.314;2022-09-09T12:37:38;3.55;;;1.60;;
14414;SDS011;7307;50.852;4.314;2022-09-09T12:40:28;2.03;;;1.05;;
14414;SDS011;7307;50.852;4.314;2022-09-09T12:42:56;2.45;;;1.15;;
14414;SDS011;7307;50.852;4.314;2022-09-09T12:45:25;3.42;;;1.50;;
14414;SDS011;7307;50.852;4.314;2022-09-09T12:48:04;2.72;;;1.35;;
14414;SDS011;7307;50.852;4.314;2022-09-09T12:50:34;4.68;;;1.05;;
14414;SDS011;7307;50.852;4.314;2022-09-09T12:53:22;3.88;;;1.20;;
14414;SDS011;7307;50.852;4.314;2022-09-09T12:55:57;1.67;;;1.00;;
14414;SDS011;7307;50.852;4.314;2022-09-09T12:58:25;3.92;;;1.38;;
14414;SDS011;7307;50.852;4.314;2022-09-09T13:00:54;2.67;;;1.10;;
14414;SDS011;7307;50.852;4.314;2022-09-09T13:03:24;3.25;;;1.27;;
14414;SDS011;7307;50.852;4.314;2022-09-09T13:05:51;2.78;;;1.02;;
14414;SDS011;7307;50.852;4.314;2022-09-09T13:08:18;2.85;;;1.13;;
14414;SDS011;7307;50.852;4.314;2022-09-09T13:10:49;2.75;;;1.42;;
14414;SDS011;7307;50.852;4.314;2022-09-09T13:13:23;3.38;;;1.48;;
14414;SDS011;7307;50.852;4.314;2022-09-09T13:15:56;2.72;;;1.13;;
14414;SDS011;7307;50.852;4.314;2022-09-09T13:18:24;2.47;;;0.95;;
14414;SDS011;7307;50.852;4.314;2022-09-09T13:20:54;3.10;;;1.35;;
14414;SDS011;7307;50.852;4.314;2022-09-09T13:23:22;2.65;;;1.20;;
14414;SDS011;7307;50.852;4.314;2022-09-09T13:25:57;4.85;;;1.17;;
14414;SDS011;7307;50.852;4.314;2022-09-09T13:28:28;3.65;;;1.00;;
14414;SDS011;7307;50.852;4.314;2022-09-09T13:31:01;3.90;;;1.30;;
14414;SDS011;7307;50.852;4.314;2022-09-09T13:36:02;6.43;;;1.63;;
14414;SDS011;7307;50.852;4.314;2022-09-09T13:38:31;3.08;;;1.25;;
14414;SDS011;7307;50.852;4.314;2022-09-09T13:41:04;1.90;;;1.00;;
14414;SDS011;7307;50.852;4.314;2022-09-09T13:43:42;3.03;;;1.20;;
14414;SDS011;7307;50.852;4.314;2022-09-09T13:49:01;2.28;;;1.27;;
14414;SDS011;7307;50.852;4.314;2022-09-09T13:51:32;2.03;;;1.25;;
14414;SDS011;7307;50.852;4.314;2022-09-09T13:54:06;1.30;;;1.00;;
14414;SDS011;7307;50.852;4.314;2022-09-09T13:56:34;1.80;;;1.15;;
14414;SDS011;7307;50.852;4.314;2022-09-09T13:59:00;3.13;;;1.17;;
14414;SDS011;7307;50.852;4.314;2022-09-09T14:01:27;2.08;;;0.90;;
14414;SDS011;7307;50.852;4.314;2022-09-09T14:03:53;3.17;;;1.10;;
14414;SDS011;7307;50.852;4.314;2022-09-09T14:06:19;1.10;;;1.00;;
14414;SDS011;7307;50.852;4.314;2022-09-09T14:08:46;2.20;;;0.90;;
14414;SDS011;7307;50.852;4.314;2022-09-09T14:11:13;2.22;;;1.00;;
14414;SDS011;7307;50.852;4.314;2022-09-09T14:13:39;2.40;;;1.20;;
14414;SDS011;7307;50.852;4.314;2022-09-09T14:16:05;0.98;;;0.52;;
14414;SDS011;7307;50.852;4.314;2022-09-09T14:18:31;1.13;;;0.80;;
14414;SDS011;7307;50.852;4.314;2022-09-09T14:20:56;2.55;;;1.10;;
14414;SDS011;7307;50.852;4.314;2022-09-09T14:23:23;1.98;;;1.00;;
14414;SDS011;7307;50.852;4.314;2022-09-09T14:25:49;1.20;;;0.93;;
14414;SDS011;7307;50.852;4.314;2022-09-09T14:28:16;1.15;;;0.90;;
14414;SDS011;7307;50.852;4.314;2022-09-09T14:30:42;2.65;;;1.02;;
14414;SDS011;7307;50.852;4.314;2022-09-09T14:33:12;2.22;;;0.98;;
14414;SDS011;7307;50.852;4.314;2022-09-09T14:35:39;2.55;;;0.80;;
14414;SDS011;7307;50.852;4.314;2022-09-09T14:38:06;2.63;;;0.95;;
14414;SDS011;7307;50.852;4.314;2022-09-09T14:40:33;1.92;;;0.90;;
14414;SDS011;7307;50.852;4.314;2022-09-09T14:43:03;1.98;;;1.10;;
14414;SDS011;7307;50.852;4.314;2022-09-09T14:45:30;1.50;;;0.80;;
14414;SDS011;7307;50.852;4.314;2022-09-09T14:47:56;0.93;;;0.70;;
14414;SDS011;7307;50.852;4.314;2022-09-09T14:50:22;2.05;;;1.20;;
14414;SDS011;7307;50.852;4.314;2022-09-09T14:52:49;1.15;;;0.80;;
14414;SDS011;7307;50.852;4.314;2022-09-09T14:55:15;1.25;;;0.65;;
14414;SDS011;7307;50.852;4.314;2022-09-09T14:57:41;1.85;;;0.90;;
14414;SDS011;7307;50.852;4.314;2022-09-09T15:00:07;3.53;;;1.20;;
14414;SDS011;7307;50.852;4.314;2022-09-09T15:02:34;1.40;;;0.77;;
14414;SDS011;7307;50.852;4.314;2022-09-09T15:05:00;2.03;;;0.93;;
14414;SDS011;7307;50.852;4.314;2022-09-09T15:07:26;2.47;;;0.90;;
14414;SDS011;7307;50.852;4.314;2022-09-09T15:09:53;1.50;;;0.85;;
14414;SDS011;7307;50.852;4.314;2022-09-09T15:12:19;1.48;;;0.90;;
14414;SDS011;7307;50.852;4.314;2022-09-09T15:14:45;1.08;;;0.70;;
14414;SDS011;7307;50.852;4.314;2022-09-09T15:17:12;1.67;;;0.95;;
14414;SDS011;7307;50.852;4.314;2022-09-09T15:19:38;1.70;;;1.00;;
14414;SDS011;7307;50.852;4.314;2022-09-09T15:22:04;1.70;;;0.90;;
14414;SDS011;7307;50.852;4.314;2022-09-09T15:24:31;2.50;;;0.77;;
14414;SDS011;7307;50.852;4.314;2022-09-09T15:26:58;2.25;;;0.98;;
14414;SDS011;7307;50.852;4.314;2022-09-09T15:29:23;1.33;;;0.82;;
14414;SDS011;7307;50.852;4.314;2022-09-09T15:31:49;1.02;;;0.75;;
14414;SDS011;7307;50.852;4.314;2022-09-09T15:34:15;1.63;;;0.93;;
14414;SDS011;7307;50.852;4.314;2022-09-09T15:36:41;0.80;;;0.65;;
14414;SDS011;7307;50.852;4.314;2022-09-09T15:39:09;1.95;;;0.80;;
14414;SDS011;7307;50.852;4.314;2022-09-09T15:41:41;1.80;;;0.70;;
14414;SDS011;7307;50.852;4.314;2022-09-09T15:44:07;0.73;;;0.50;;
14414;SDS011;7307;50.852;4.314;2022-09-09T15:46:40;2.28;;;1.00;;
14414;SDS011;7307;50.852;4.314;2022-09-09T15:51:40;1.83;;;0.90;;
14414;SDS011;7307;50.852;4.314;2022-09-09T15:54:08;1.15;;;0.88;;
14414;SDS011;7307;50.852;4.314;2022-09-09T15:56:35;2.28;;;1.00;;
14414;SDS011;7307;50.852;4.314;2022-09-09T15:59:01;1.80;;;0.90;;
14414;SDS011;7307;50.852;4.314;2022-09-09T16:01:28;1.67;;;1.00;;
14414;SDS011;7307;50.852;4.314;2022-09-09T16:03:55;1.38;;;0.82;;
14414;SDS011;7307;50.852;4.314;2022-09-09T16:06:22;1.42;;;0.95;;
14414;SDS011;7307;50.852;4.314;2022-09-09T16:08:49;0.77;;;0.52;;
14414;SDS011;7307;50.852;4.314;2022-09-09T16:11:38;0.90;;;0.63;;
14414;SDS011;7307;50.852;4.314;2022-09-09T16:14:04;1.08;;;0.80;;
14414;SDS011;7307;50.852;4.314;2022-09-09T16:16:31;1.38;;;0.85;;
14414;SDS011;7307;50.852;4.314;2022-09-09T16:18:58;1.83;;;0.75;;
14414;SDS011;7307;50.852;4.314;2022-09-09T16:21:29;1.08;;;0.80;;
14414;SDS011;7307;50.852;4.314;2022-09-09T16:23:57;1.80;;;0.93;;
14414;SDS011;7307;50.852;4.314;2022-09-09T16:26:24;0.98;;;0.82;;
14414;SDS011;7307;50.852;4.314;2022-09-09T16:28:50;1.33;;;0.80;;
14414;SDS011;7307;50.852;4.314;2022-09-09T16:31:20;0.80;;;0.70;;
14414;SDS011;7307;50.852;4.314;2022-09-09T16:33:47;2.05;;;0.77;;
14414;SDS011;7307;50.852;4.314;2022-09-09T16:36:15;1.60;;;0.88;;
14414;SDS011;7307;50.852;4.314;2022-09-09T16:38:45;1.73;;;0.70;;
14414;SDS011;7307;50.852;4.314;2022-09-09T16:41:11;0.90;;;0.90;;
14414;SDS011;7307;50.852;4.314;2022-09-09T16:43:39;2.33;;;0.90;;
14414;SDS011;7307;50.852;4.314;2022-09-09T16:46:15;1.67;;;0.70;;
14414;SDS011;7307;50.852;4.314;2022-09-09T16:48:43;1.00;;;0.70;;
14414;SDS011;7307;50.852;4.314;2022-09-09T16:51:14;1.30;;;0.88;;
14414;SDS011;7307;50.852;4.314;2022-09-09T16:53:42;1.70;;;0.82;;
14414;SDS011;7307;50.852;4.314;2022-09-09T16:56:10;1.20;;;0.80;;
14414;SDS011;7307;50.852;4.314;2022-09-09T16:58:40;0.90;;;0.80;;
14414;SDS011;7307;50.852;4.314;2022-09-09T17:01:08;0.70;;;0.68;;
14414;SDS011;7307;50.852;4.314;2022-09-09T17:03:35;1.48;;;0.90;;
14414;SDS011;7307;50.852;4.314;2022-09-09T17:06:02;0.93;;;0.70;;
14414;SDS011;7307;50.852;4.314;2022-09-09T17:08:31;1.27;;;0.60;;
14414;SDS011;7307;50.852;4.314;2022-09-09T17:10:58;1.10;;;0.60;;
14414;SDS011;7307;50.852;4.314;2022-09-09T17:13:24;1.10;;;0.77;;
14414;SDS011;7307;50.852;4.314;2022-09-09T17:15:50;0.75;;;0.60;;
14414;SDS011;7307;50.852;4.314;2022-09-09T17:18:16;1.30;;;0.65;;
14414;SDS011;7307;50.852;4.314;2022-09-09T17:20:42;1.05;;;0.55;;
14414;SDS011;7307;50.852;4.314;2022-09-09T17:23:09;1.00;;;0.80;;
14414;SDS011;7307;50.852;4.314;2022-09-09T17:25:35;0.85;;;0.60;;